sensor_id;sensor_type;location;lat;lon;timestamp;temperature;humidity
67572;SHT31;54397;47.506;19.158;2023-06-10T00:02:43;18.63;92.43
67572;SHT31;54397;47.506;19.158;2023-06-10T00:06:06;18.61;92.55
67572;SHT31;54397;47.506;19.158;2023-06-10T00:09:33;18.63;92.52
67572;SHT31;54397;47.506;19.158;2023-06-10T00:12:57;18.59;92.49
67572;SHT31;54397;47.506;19.158;2023-06-10T00:16:18;18.61;92.38
67572;SHT31;54397;47.506;19.158;2023-06-10T00:19:40;18.58;92.11
67572;SHT31;54397;47.506;19.158;2023-06-10T00:23:02;18.51;92.36
67572;SHT31;54397;47.506;19.158;2023-06-10T00:26:29;18.45;92.40
67572;SHT31;54397;47.506;19.158;2023-06-10T00:29:51;18.47;92.04
67572;SHT31;54397;47.506;19.158;2023-06-10T00:33:12;18.45;91.79
67572;SHT31;54397;47.506;19.158;2023-06-10T00:36:34;18.40;92.05
67572;SHT31;54397;47.506;19.158;2023-06-10T00:39:59;18.47;91.80
67572;SHT31;54397;47.506;19.158;2023-06-10T00:43:21;18.35;91.92
67572;SHT31;54397;47.506;19.158;2023-06-10T00:46:45;18.31;92.15
67572;SHT31;54397;47.506;19.158;2023-06-10T00:50:07;18.32;91.88
67572;SHT31;54397;47.506;19.158;2023-06-10T00:53:29;18.28;91.80
67572;SHT31;54397;47.506;19.158;2023-06-10T00:56:53;18.28;91.61
67572;SHT31;54397;47.506;19.158;2023-06-10T01:00:17;18.24;91.39
67572;SHT31;54397;47.506;19.158;2023-06-10T01:03:40;18.24;91.53
67572;SHT31;54397;47.506;19.158;2023-06-10T01:07:25;18.21;91.73
67572;SHT31;54397;47.506;19.158;2023-06-10T01:10:59;18.25;91.43
67572;SHT31;54397;47.506;19.158;2023-06-10T01:14:22;18.21;91.51
67572;SHT31;54397;47.506;19.158;2023-06-10T01:18:04;18.20;91.27
67572;SHT31;54397;47.506;19.158;2023-06-10T01:21:30;18.10;91.37
67572;SHT31;54397;47.506;19.158;2023-06-10T01:24:58;18.05;91.62
67572;SHT31;54397;47.506;19.158;2023-06-10T01:28:33;18.08;91.63
67572;SHT31;54397;47.506;19.158;2023-06-10T01:32:28;18.07;91.83
67572;SHT31;54397;47.506;19.158;2023-06-10T01:35:55;18.00;91.76
67572;SHT31;54397;47.506;19.158;2023-06-10T01:39:21;17.97;91.93
67572;SHT31;54397;47.506;19.158;2023-06-10T01:42:43;17.94;92.06
67572;SHT31;54397;47.506;19.158;2023-06-10T01:46:07;17.91;92.12
67572;SHT31;54397;47.506;19.158;2023-06-10T01:49:29;17.89;92.05
67572;SHT31;54397;47.506;19.158;2023-06-10T01:52:51;17.86;92.08
67572;SHT31;54397;47.506;19.158;2023-06-10T01:56:16;17.86;92.18
67572;SHT31;54397;47.506;19.158;2023-06-10T01:59:43;17.87;92.25
67572;SHT31;54397;47.506;19.158;2023-06-10T02:03:05;17.90;92.25
67572;SHT31;54397;47.506;19.158;2023-06-10T02:06:27;17.90;92.07
67572;SHT31;54397;47.506;19.158;2023-06-10T02:09:51;17.90;91.99
67572;SHT31;54397;47.506;19.158;2023-06-10T02:13:13;17.82;92.16
67572;SHT31;54397;47.506;19.158;2023-06-10T02:16:34;17.84;92.24
67572;SHT31;54397;47.506;19.158;2023-06-10T02:19:56;17.70;92.30
67572;SHT31;54397;47.506;19.158;2023-06-10T02:23:21;17.82;92.14
67572;SHT31;54397;47.506;19.158;2023-06-10T02:26:43;17.82;92.11
67572;SHT31;54397;47.506;19.158;2023-06-10T02:30:05;17.79;92.24
67572;SHT31;54397;47.506;19.158;2023-06-10T02:33:27;17.82;92.04
67572;SHT31;54397;47.506;19.158;2023-06-10T02:36:48;17.84;91.93
67572;SHT31;54397;47.506;19.158;2023-06-10T02:40:15;17.82;91.86
67572;SHT31;54397;47.506;19.158;2023-06-10T02:43:36;17.80;91.97
67572;SHT31;54397;47.506;19.158;2023-06-10T02:47:01;17.80;92.17
67572;SHT31;54397;47.506;19.158;2023-06-10T02:50:25;17.86;92.22
67572;SHT31;54397;47.506;19.158;2023-06-10T02:53:46;17.82;92.44
67572;SHT31;54397;47.506;19.158;2023-06-10T02:57:10;17.90;92.38
67572;SHT31;54397;47.506;19.158;2023-06-10T03:00:32;17.82;92.10
67572;SHT31;54397;47.506;19.158;2023-06-10T03:03:56;17.91;91.80
67572;SHT31;54397;47.506;19.158;2023-06-10T03:07:21;17.97;91.72
67572;SHT31;54397;47.506;19.158;2023-06-10T03:10:47;17.98;91.76
67572;SHT31;54397;47.506;19.158;2023-06-10T03:14:09;17.97;91.94
67572;SHT31;54397;47.506;19.158;2023-06-10T03:17:32;17.98;91.95
67572;SHT31;54397;47.506;19.158;2023-06-10T03:20:54;18.00;91.92
67572;SHT31;54397;47.506;19.158;2023-06-10T03:24:16;17.86;92.36
67572;SHT31;54397;47.506;19.158;2023-06-10T03:27:41;17.56;93.63
67572;SHT31;54397;47.506;19.158;2023-06-10T03:31:03;17.61;93.86
67572;SHT31;54397;47.506;19.158;2023-06-10T03:34:27;17.63;94.02
67572;SHT31;54397;47.506;19.158;2023-06-10T03:37:51;17.57;94.49
67572;SHT31;54397;47.506;19.158;2023-06-10T03:41:15;17.75;94.07
67572;SHT31;54397;47.506;19.158;2023-06-10T03:44:37;17.90;93.59
67572;SHT31;54397;47.506;19.158;2023-06-10T03:48:01;18.04;93.31
67572;SHT31;54397;47.506;19.158;2023-06-10T03:51:25;18.14;93.25
67572;SHT31;54397;47.506;19.158;2023-06-10T03:54:46;18.17;93.20
67572;SHT31;54397;47.506;19.158;2023-06-10T03:58:08;18.20;93.00
67572;SHT31;54397;47.506;19.158;2023-06-10T04:01:30;18.21;92.86
67572;SHT31;54397;47.506;19.158;2023-06-10T04:04:55;18.20;92.70
67572;SHT31;54397;47.506;19.158;2023-06-10T04:08:21;18.22;92.55
67572;SHT31;54397;47.506;19.158;2023-06-10T04:11:45;18.03;92.46
67572;SHT31;54397;47.506;19.158;2023-06-10T04:15:08;18.03;92.52
67572;SHT31;54397;47.506;19.158;2023-06-10T04:18:30;17.98;92.71
67572;SHT31;54397;47.506;19.158;2023-06-10T04:21:54;18.00;92.37
67572;SHT31;54397;47.506;19.158;2023-06-10T04:25:16;17.77;92.78
67572;SHT31;54397;47.506;19.158;2023-06-10T04:28:38;17.86;92.64
67572;SHT31;54397;47.506;19.158;2023-06-10T04:32:00;17.79;92.87
67572;SHT31;54397;47.506;19.158;2023-06-10T04:35:23;17.84;92.80
67572;SHT31;54397;47.506;19.158;2023-06-10T04:38:44;17.90;92.60
67572;SHT31;54397;47.506;19.158;2023-06-10T04:42:07;18.00;92.45
67572;SHT31;54397;47.506;19.158;2023-06-10T04:45:28;17.96;92.18
67572;SHT31;54397;47.506;19.158;2023-06-10T04:48:51;17.94;92.12
67572;SHT31;54397;47.506;19.158;2023-06-10T04:52:12;17.98;92.08
67572;SHT31;54397;47.506;19.158;2023-06-10T04:55:39;17.96;91.90
67572;SHT31;54397;47.506;19.158;2023-06-10T04:59:03;18.05;91.82
67572;SHT31;54397;47.506;19.158;2023-06-10T05:02:27;18.07;91.89
67572;SHT31;54397;47.506;19.158;2023-06-10T05:05:49;17.97;91.79
67572;SHT31;54397;47.506;19.158;2023-06-10T05:09:11;17.91;91.67
67572;SHT31;54397;47.506;19.158;2023-06-10T05:12:35;17.80;92.38
67572;SHT31;54397;47.506;19.158;2023-06-10T05:15:56;17.98;92.40
67572;SHT31;54397;47.506;19.158;2023-06-10T05:19:18;18.04;91.89
67572;SHT31;54397;47.506;19.158;2023-06-10T05:22:40;18.14;91.39
67572;SHT31;54397;47.506;19.158;2023-06-10T05:26:02;18.21;91.02
67572;SHT31;54397;47.506;19.158;2023-06-10T05:29:24;18.28;91.13
67572;SHT31;54397;47.506;19.158;2023-06-10T05:32:46;18.37;91.24
67572;SHT31;54397;47.506;19.158;2023-06-10T05:36:07;18.48;91.03
67572;SHT31;54397;47.506;19.158;2023-06-10T05:39:29;18.49;90.15
67572;SHT31;54397;47.506;19.158;2023-06-10T05:42:53;18.44;89.49
67572;SHT31;54397;47.506;19.158;2023-06-10T05:46:15;18.45;90.08
67572;SHT31;54397;47.506;19.158;2023-06-10T05:49:36;18.45;90.49
67572;SHT31;54397;47.506;19.158;2023-06-10T05:52:58;18.52;90.42
67572;SHT31;54397;47.506;19.158;2023-06-10T05:56:20;18.56;89.73
67572;SHT31;54397;47.506;19.158;2023-06-10T05:59:44;18.55;90.45
67572;SHT31;54397;47.506;19.158;2023-06-10T06:03:07;18.58;90.44
67572;SHT31;54397;47.506;19.158;2023-06-10T06:06:29;18.69;90.07
67572;SHT31;54397;47.506;19.158;2023-06-10T06:09:54;18.80;90.04
67572;SHT31;54397;47.506;19.158;2023-06-10T06:13:18;18.76;89.91
67572;SHT31;54397;47.506;19.158;2023-06-10T06:16:42;18.82;89.49
67572;SHT31;54397;47.506;19.158;2023-06-10T06:20:04;19.10;89.45
67572;SHT31;54397;47.506;19.158;2023-06-10T06:23:28;19.26;88.92
67572;SHT31;54397;47.506;19.158;2023-06-10T06:26:53;19.23;88.79
67572;SHT31;54397;47.506;19.158;2023-06-10T06:30:14;19.21;88.69
67572;SHT31;54397;47.506;19.158;2023-06-10T06:33:41;19.03;88.82
67572;SHT31;54397;47.506;19.158;2023-06-10T06:37:05;18.79;89.60
67572;SHT31;54397;47.506;19.158;2023-06-10T06:40:27;18.62;90.26
67572;SHT31;54397;47.506;19.158;2023-06-10T06:43:51;18.80;90.48
67572;SHT31;54397;47.506;19.158;2023-06-10T06:47:13;18.75;90.16
67572;SHT31;54397;47.506;19.158;2023-06-10T06:50:41;18.80;90.43
67572;SHT31;54397;47.506;19.158;2023-06-10T06:54:03;18.82;89.88
67572;SHT31;54397;47.506;19.158;2023-06-10T06:57:26;18.85;90.49
67572;SHT31;54397;47.506;19.158;2023-06-10T07:00:51;19.07;89.85
67572;SHT31;54397;47.506;19.158;2023-06-10T07:04:16;19.21;89.14
67572;SHT31;54397;47.506;19.158;2023-06-10T07:07:38;19.23;89.42
67572;SHT31;54397;47.506;19.158;2023-06-10T07:11:04;19.31;88.75
67572;SHT31;54397;47.506;19.158;2023-06-10T07:14:28;19.21;88.72
67572;SHT31;54397;47.506;19.158;2023-06-10T07:17:50;19.28;88.74
67572;SHT31;54397;47.506;19.158;2023-06-10T07:21:14;19.50;89.03
67572;SHT31;54397;47.506;19.158;2023-06-10T07:24:36;19.66;87.17
67572;SHT31;54397;47.506;19.158;2023-06-10T07:27:58;19.92;87.28
67572;SHT31;54397;47.506;19.158;2023-06-10T07:31:23;20.05;86.79
67572;SHT31;54397;47.506;19.158;2023-06-10T07:34:46;20.06;86.30
67572;SHT31;54397;47.506;19.158;2023-06-10T07:38:07;19.95;86.03
67572;SHT31;54397;47.506;19.158;2023-06-10T07:41:29;19.97;86.45
67572;SHT31;54397;47.506;19.158;2023-06-10T07:44:51;20.29;86.69
67572;SHT31;54397;47.506;19.158;2023-06-10T07:48:12;20.45;84.39
67572;SHT31;54397;47.506;19.158;2023-06-10T07:51:34;20.51;85.23
67572;SHT31;54397;47.506;19.158;2023-06-10T07:54:59;20.67;84.58
67572;SHT31;54397;47.506;19.158;2023-06-10T07:58:23;20.70;83.43
67572;SHT31;54397;47.506;19.158;2023-06-10T08:01:45;20.88;84.02
67572;SHT31;54397;47.506;19.158;2023-06-10T08:05:07;21.16;84.09
67572;SHT31;54397;47.506;19.158;2023-06-10T08:08:30;21.49;83.61
67572;SHT31;54397;47.506;19.158;2023-06-10T08:11:56;21.80;83.08
67572;SHT31;54397;47.506;19.158;2023-06-10T08:15:17;21.64;79.50
67572;SHT31;54397;47.506;19.158;2023-06-10T08:18:39;21.74;81.19
67572;SHT31;54397;47.506;19.158;2023-06-10T08:22:01;21.57;80.44
67572;SHT31;54397;47.506;19.158;2023-06-10T08:25:23;21.51;81.28
67572;SHT31;54397;47.506;19.158;2023-06-10T08:28:45;21.43;80.87
67572;SHT31;54397;47.506;19.158;2023-06-10T08:32:07;21.43;81.29
67572;SHT31;54397;47.506;19.158;2023-06-10T08:35:29;21.27;80.87
67572;SHT31;54397;47.506;19.158;2023-06-10T08:38:51;21.35;80.28
67572;SHT31;54397;47.506;19.158;2023-06-10T08:45:37;21.85;80.48
67572;SHT31;54397;47.506;19.158;2023-06-10T08:49:05;22.57;79.40
67572;SHT31;54397;47.506;19.158;2023-06-10T08:52:29;23.22;78.32
67572;SHT31;54397;47.506;19.158;2023-06-10T08:55:58;23.76;75.86
67572;SHT31;54397;47.506;19.158;2023-06-10T08:59:20;23.56;71.90
67572;SHT31;54397;47.506;19.158;2023-06-10T09:02:43;24.00;73.52
67572;SHT31;54397;47.506;19.158;2023-06-10T09:06:05;24.38;72.48
67572;SHT31;54397;47.506;19.158;2023-06-10T09:09:34;24.92;70.72
67572;SHT31;54397;47.506;19.158;2023-06-10T09:12:57;24.95;68.93
67572;SHT31;54397;47.506;19.158;2023-06-10T09:16:21;25.03;70.89
67572;SHT31;54397;47.506;19.158;2023-06-10T09:19:44;24.69;70.08
67572;SHT31;54397;47.506;19.158;2023-06-10T09:23:06;24.14;70.03
67572;SHT31;54397;47.506;19.158;2023-06-10T09:26:31;23.61;72.30
67572;SHT31;54397;47.506;19.158;2023-06-10T09:29:54;23.21;73.89
67572;SHT31;54397;47.506;19.158;2023-06-10T09:33:16;23.06;74.66
67572;SHT31;54397;47.506;19.158;2023-06-10T09:36:41;22.93;76.19
67572;SHT31;54397;47.506;19.158;2023-06-10T09:40:07;22.96;75.27
67572;SHT31;54397;47.506;19.158;2023-06-10T09:43:44;22.66;75.89
67572;SHT31;54397;47.506;19.158;2023-06-10T09:47:07;22.64;74.34
67572;SHT31;54397;47.506;19.158;2023-06-10T09:50:33;22.40;75.27
67572;SHT31;54397;47.506;19.158;2023-06-10T09:53:55;22.59;75.95
67572;SHT31;54397;47.506;19.158;2023-06-10T09:57:17;22.81;75.36
67572;SHT31;54397;47.506;19.158;2023-06-10T10:00:42;23.21;74.41
67572;SHT31;54397;47.506;19.158;2023-06-10T10:04:06;23.07;74.41
67572;SHT31;54397;47.506;19.158;2023-06-10T10:07:30;22.73;76.20
67572;SHT31;54397;47.506;19.158;2023-06-10T10:10:56;22.55;76.66
67572;SHT31;54397;47.506;19.158;2023-06-10T10:14:19;22.46;77.03
67572;SHT31;54397;47.506;19.158;2023-06-10T10:21:16;22.71;76.59
67572;SHT31;54397;47.506;19.158;2023-06-10T10:24:46;22.67;76.07
67572;SHT31;54397;47.506;19.158;2023-06-10T10:28:11;22.76;75.26
67572;SHT31;54397;47.506;19.158;2023-06-10T10:31:35;22.96;74.57
67572;SHT31;54397;47.506;19.158;2023-06-10T10:38:31;22.81;75.30
67572;SHT31;54397;47.506;19.158;2023-06-10T10:41:56;22.80;75.61
67572;SHT31;54397;47.506;19.158;2023-06-10T10:45:18;22.90;76.61
67572;SHT31;54397;47.506;19.158;2023-06-10T10:48:41;23.03;75.34
67572;SHT31;54397;47.506;19.158;2023-06-10T10:52:04;23.32;74.61
67572;SHT31;54397;47.506;19.158;2023-06-10T10:55:29;23.72;73.33
67572;SHT31;54397;47.506;19.158;2023-06-10T10:59:04;23.90;74.37
67572;SHT31;54397;47.506;19.158;2023-06-10T11:06:12;24.17;72.31
67572;SHT31;54397;47.506;19.158;2023-06-10T11:09:36;24.37;71.11
67572;SHT31;54397;47.506;19.158;2023-06-10T11:12:58;24.49;72.57
67572;SHT31;54397;47.506;19.158;2023-06-10T11:16:27;24.45;67.02
67572;SHT31;54397;47.506;19.158;2023-06-10T11:19:49;24.65;69.25
67572;SHT31;54397;47.506;19.158;2023-06-10T11:26:46;24.89;64.28
67572;SHT31;54397;47.506;19.158;2023-06-10T11:30:27;25.03;64.42
67572;SHT31;54397;47.506;19.158;2023-06-10T11:34:02;25.43;65.19
67572;SHT31;54397;47.506;19.158;2023-06-10T11:37:30;25.22;63.78
67572;SHT31;54397;47.506;19.158;2023-06-10T11:40:52;25.07;67.12
67572;SHT31;54397;47.506;19.158;2023-06-10T11:44:14;24.78;68.14
67572;SHT31;54397;47.506;19.158;2023-06-10T11:47:57;25.15;68.77
67572;SHT31;54397;47.506;19.158;2023-06-10T11:51:22;25.24;66.61
67572;SHT31;54397;47.506;19.158;2023-06-10T11:54:53;25.65;65.70
67572;SHT31;54397;47.506;19.158;2023-06-10T11:58:20;25.99;64.76
67572;SHT31;54397;47.506;19.158;2023-06-10T12:01:45;25.95;57.94
67572;SHT31;54397;47.506;19.158;2023-06-10T12:05:14;25.75;62.18
67572;SHT31;54397;47.506;19.158;2023-06-10T12:08:41;25.98;61.25
67572;SHT31;54397;47.506;19.158;2023-06-10T12:12:04;26.08;59.25
67572;SHT31;54397;47.506;19.158;2023-06-10T12:15:27;26.05;61.35
67572;SHT31;54397;47.506;19.158;2023-06-10T12:18:50;26.30;61.63
67572;SHT31;54397;47.506;19.158;2023-06-10T12:22:12;25.89;61.35
67572;SHT31;54397;47.506;19.158;2023-06-10T12:25:37;26.03;61.11
67572;SHT31;54397;47.506;19.158;2023-06-10T12:29:11;25.86;63.11
67572;SHT31;54397;47.506;19.158;2023-06-10T12:36:03;25.80;62.31
67572;SHT31;54397;47.506;19.158;2023-06-10T12:39:28;25.84;62.28
67572;SHT31;54397;47.506;19.158;2023-06-10T12:42:50;25.48;59.21
67572;SHT31;54397;47.506;19.158;2023-06-10T12:46:14;25.54;61.37
67572;SHT31;54397;47.506;19.158;2023-06-10T12:49:36;25.44;62.18
67572;SHT31;54397;47.506;19.158;2023-06-10T12:52:59;25.48;62.33
67572;SHT31;54397;47.506;19.158;2023-06-10T12:56:21;25.47;64.15
67572;SHT31;54397;47.506;19.158;2023-06-10T12:59:48;25.61;63.98
67572;SHT31;54397;47.506;19.158;2023-06-10T13:03:18;25.64;64.07
67572;SHT31;54397;47.506;19.158;2023-06-10T13:06:40;25.41;64.34
67572;SHT31;54397;47.506;19.158;2023-06-10T13:10:02;25.28;65.64
67572;SHT31;54397;47.506;19.158;2023-06-10T13:13:24;25.33;65.32
67572;SHT31;54397;47.506;19.158;2023-06-10T13:16:47;25.13;63.00
67572;SHT31;54397;47.506;19.158;2023-06-10T13:20:13;24.96;62.91
67572;SHT31;54397;47.506;19.158;2023-06-10T13:23:35;25.02;65.42
67572;SHT31;54397;47.506;19.158;2023-06-10T13:26:59;24.96;67.03
67572;SHT31;54397;47.506;19.158;2023-06-10T13:30:21;24.96;68.36
67572;SHT31;54397;47.506;19.158;2023-06-10T13:33:42;24.88;68.00
67572;SHT31;54397;47.506;19.158;2023-06-10T13:37:05;24.88;67.62
67572;SHT31;54397;47.506;19.158;2023-06-10T13:40:30;24.80;67.67
67572;SHT31;54397;47.506;19.158;2023-06-10T13:43:54;24.65;65.29
67572;SHT31;54397;47.506;19.158;2023-06-10T13:47:18;24.41;66.54
67572;SHT31;54397;47.506;19.158;2023-06-10T13:50:43;24.17;69.12
67572;SHT31;54397;47.506;19.158;2023-06-10T13:54:07;23.83;75.57
67572;SHT31;54397;47.506;19.158;2023-06-10T13:57:28;23.66;78.05
67572;SHT31;54397;47.506;19.158;2023-06-10T14:00:53;23.45;79.95
67572;SHT31;54397;47.506;19.158;2023-06-10T14:04:20;23.25;78.60
67572;SHT31;54397;47.506;19.158;2023-06-10T14:07:41;23.22;80.02
67572;SHT31;54397;47.506;19.158;2023-06-10T14:11:05;23.24;79.39
67572;SHT31;54397;47.506;19.158;2023-06-10T14:14:27;23.38;79.65
67572;SHT31;54397;47.506;19.158;2023-06-10T14:17:49;23.37;79.72
67572;SHT31;54397;47.506;19.158;2023-06-10T14:21:11;23.29;79.28
67572;SHT31;54397;47.506;19.158;2023-06-10T14:24:33;23.39;79.09
67572;SHT31;54397;47.506;19.158;2023-06-10T14:27:57;23.38;78.69
67572;SHT31;54397;47.506;19.158;2023-06-10T14:31:19;23.28;78.09
67572;SHT31;54397;47.506;19.158;2023-06-10T14:34:43;23.34;78.49
67572;SHT31;54397;47.506;19.158;2023-06-10T14:38:06;23.73;77.58
67572;SHT31;54397;47.506;19.158;2023-06-10T14:41:28;24.00;77.96
67572;SHT31;54397;47.506;19.158;2023-06-10T14:44:50;24.14;77.01
67572;SHT31;54397;47.506;19.158;2023-06-10T14:48:14;24.00;74.78
67572;SHT31;54397;47.506;19.158;2023-06-10T14:51:36;24.04;75.55
67572;SHT31;54397;47.506;19.158;2023-06-10T14:54:58;23.97;75.53
67572;SHT31;54397;47.506;19.158;2023-06-10T14:58:19;23.92;73.76
67572;SHT31;54397;47.506;19.158;2023-06-10T15:01:44;24.03;72.87
67572;SHT31;54397;47.506;19.158;2023-06-10T15:05:06;24.20;72.76
67572;SHT31;54397;47.506;19.158;2023-06-10T15:08:30;24.22;74.20
67572;SHT31;54397;47.506;19.158;2023-06-10T15:11:55;23.92;75.09
67572;SHT31;54397;47.506;19.158;2023-06-10T15:15:16;23.65;75.06
67572;SHT31;54397;47.506;19.158;2023-06-10T15:18:38;23.17;76.64
67572;SHT31;54397;47.506;19.158;2023-06-10T15:22:02;23.18;77.30
67572;SHT31;54397;47.506;19.158;2023-06-10T15:25:26;23.07;77.08
67572;SHT31;54397;47.506;19.158;2023-06-10T15:28:52;22.86;77.25
67572;SHT31;54397;47.506;19.158;2023-06-10T15:32:14;22.96;77.39
67572;SHT31;54397;47.506;19.158;2023-06-10T15:35:42;22.87;77.27
67572;SHT31;54397;47.506;19.158;2023-06-10T15:39:06;22.90;76.83
67572;SHT31;54397;47.506;19.158;2023-06-10T15:42:31;22.94;76.65
67572;SHT31;54397;47.506;19.158;2023-06-10T15:45:52;23.10;76.70
67572;SHT31;54397;47.506;19.158;2023-06-10T15:49:14;22.96;77.45
67572;SHT31;54397;47.506;19.158;2023-06-10T15:52:40;22.83;77.66
67572;SHT31;54397;47.506;19.158;2023-06-10T15:56:05;22.74;78.18
67572;SHT31;54397;47.506;19.158;2023-06-10T15:59:26;22.74;77.92
67572;SHT31;54397;47.506;19.158;2023-06-10T16:02:50;22.57;78.88
67572;SHT31;54397;47.506;19.158;2023-06-10T16:06:12;22.61;78.40
67572;SHT31;54397;47.506;19.158;2023-06-10T16:09:36;22.59;78.93
67572;SHT31;54397;47.506;19.158;2023-06-10T16:12:58;22.59;79.37
67572;SHT31;54397;47.506;19.158;2023-06-10T16:16:19;22.60;79.77
67572;SHT31;54397;47.506;19.158;2023-06-10T16:19:41;22.70;80.03
67572;SHT31;54397;47.506;19.158;2023-06-10T16:23:04;22.57;80.20
67572;SHT31;54397;47.506;19.158;2023-06-10T16:26:26;22.35;81.16
67572;SHT31;54397;47.506;19.158;2023-06-10T16:29:48;22.46;81.39
67572;SHT31;54397;47.506;19.158;2023-06-10T16:33:09;22.25;81.31
67572;SHT31;54397;47.506;19.158;2023-06-10T16:36:34;22.21;81.87
67572;SHT31;54397;47.506;19.158;2023-06-10T16:39:58;22.33;81.38
67572;SHT31;54397;47.506;19.158;2023-06-10T16:43:19;22.21;81.02
67572;SHT31;54397;47.506;19.158;2023-06-10T16:46:41;22.18;81.34
67572;SHT31;54397;47.506;19.158;2023-06-10T16:50:03;22.11;81.29
67572;SHT31;54397;47.506;19.158;2023-06-10T16:53:25;22.18;81.53
67572;SHT31;54397;47.506;19.158;2023-06-10T16:56:47;22.25;81.47
67572;SHT31;54397;47.506;19.158;2023-06-10T17:00:09;22.28;81.86
67572;SHT31;54397;47.506;19.158;2023-06-10T17:03:31;22.36;81.48
67572;SHT31;54397;47.506;19.158;2023-06-10T17:06:52;22.06;82.58
67572;SHT31;54397;47.506;19.158;2023-06-10T17:10:19;22.02;82.89
67572;SHT31;54397;47.506;19.158;2023-06-10T17:13:44;22.09;82.64
67572;SHT31;54397;47.506;19.158;2023-06-10T17:17:06;22.11;82.93
67572;SHT31;54397;47.506;19.158;2023-06-10T17:20:28;22.11;82.85
67572;SHT31;54397;47.506;19.158;2023-06-10T17:23:52;22.15;82.76
67572;SHT31;54397;47.506;19.158;2023-06-10T17:27:14;22.13;83.00
67572;SHT31;54397;47.506;19.158;2023-06-10T17:30:40;22.02;82.98
67572;SHT31;54397;47.506;19.158;2023-06-10T17:34:02;21.92;83.11
67572;SHT31;54397;47.506;19.158;2023-06-10T17:37:24;21.97;83.15
67572;SHT31;54397;47.506;19.158;2023-06-10T17:40:46;22.00;82.46
67572;SHT31;54397;47.506;19.158;2023-06-10T17:44:07;22.02;82.80
67572;SHT31;54397;47.506;19.158;2023-06-10T17:47:29;21.97;83.01
67572;SHT31;54397;47.506;19.158;2023-06-10T17:50:55;21.84;82.98
67572;SHT31;54397;47.506;19.158;2023-06-10T17:54:18;21.83;83.03
67572;SHT31;54397;47.506;19.158;2023-06-10T17:57:42;21.84;83.33
67572;SHT31;54397;47.506;19.158;2023-06-10T18:01:06;21.88;83.37
67572;SHT31;54397;47.506;19.158;2023-06-10T18:04:28;21.88;83.43
67572;SHT31;54397;47.506;19.158;2023-06-10T18:07:50;21.84;83.42
67572;SHT31;54397;47.506;19.158;2023-06-10T18:11:12;21.78;83.38
67572;SHT31;54397;47.506;19.158;2023-06-10T18:14:35;21.75;83.19
67572;SHT31;54397;47.506;19.158;2023-06-10T18:17:57;21.70;83.66
67572;SHT31;54397;47.506;19.158;2023-06-10T18:21:21;21.70;83.78
67572;SHT31;54397;47.506;19.158;2023-06-10T18:24:43;21.65;84.01
67572;SHT31;54397;47.506;19.158;2023-06-10T18:28:04;21.68;83.92
67572;SHT31;54397;47.506;19.158;2023-06-10T18:31:28;21.70;83.65
67572;SHT31;54397;47.506;19.158;2023-06-10T18:34:52;21.70;83.61
67572;SHT31;54397;47.506;19.158;2023-06-10T18:38:16;21.63;84.06
67572;SHT31;54397;47.506;19.158;2023-06-10T18:41:40;21.67;84.21
67572;SHT31;54397;47.506;19.158;2023-06-10T18:45:07;21.68;84.22
67572;SHT31;54397;47.506;19.158;2023-06-10T18:48:30;21.63;84.26
67572;SHT31;54397;47.506;19.158;2023-06-10T18:51:51;21.63;84.30
67572;SHT31;54397;47.506;19.158;2023-06-10T18:55:15;21.58;84.14
67572;SHT31;54397;47.506;19.158;2023-06-10T18:58:39;21.54;84.66
67572;SHT31;54397;47.506;19.158;2023-06-10T19:02:04;21.45;84.81
67572;SHT31;54397;47.506;19.158;2023-06-10T19:05:28;21.56;84.64
67572;SHT31;54397;47.506;19.158;2023-06-10T19:08:50;21.54;84.77
67572;SHT31;54397;47.506;19.158;2023-06-10T19:12:11;21.50;85.08
67572;SHT31;54397;47.506;19.158;2023-06-10T19:15:33;21.51;85.05
67572;SHT31;54397;47.506;19.158;2023-06-10T19:18:55;21.51;85.11
67572;SHT31;54397;47.506;19.158;2023-06-10T19:22:17;21.42;85.54
67572;SHT31;54397;47.506;19.158;2023-06-10T19:25:39;21.39;85.91
67572;SHT31;54397;47.506;19.158;2023-06-10T19:29:01;21.43;85.93
67572;SHT31;54397;47.506;19.158;2023-06-10T19:32:26;21.40;86.11
67572;SHT31;54397;47.506;19.158;2023-06-10T19:35:51;21.40;86.24
67572;SHT31;54397;47.506;19.158;2023-06-10T19:39:15;21.35;86.37
67572;SHT31;54397;47.506;19.158;2023-06-10T19:42:41;21.30;86.48
67572;SHT31;54397;47.506;19.158;2023-06-10T19:46:03;21.22;86.75
67572;SHT31;54397;47.506;19.158;2023-06-10T19:49:27;21.15;87.14
67572;SHT31;54397;47.506;19.158;2023-06-10T19:52:49;21.16;87.25
67572;SHT31;54397;47.506;19.158;2023-06-10T19:56:11;21.16;87.14
67572;SHT31;54397;47.506;19.158;2023-06-10T19:59:39;21.23;87.18
67572;SHT31;54397;47.506;19.158;2023-06-10T20:03:02;21.29;86.92
67572;SHT31;54397;47.506;19.158;2023-06-10T20:06:23;21.26;86.91
67572;SHT31;54397;47.506;19.158;2023-06-10T20:09:45;21.03;87.49
67572;SHT31;54397;47.506;19.158;2023-06-10T20:13:07;20.84;87.12
67572;SHT31;54397;47.506;19.158;2023-06-10T20:16:31;20.77;86.61
67572;SHT31;54397;47.506;19.158;2023-06-10T20:19:55;20.68;84.76
67572;SHT31;54397;47.506;19.158;2023-06-10T20:23:17;20.74;85.14
67572;SHT31;54397;47.506;19.158;2023-06-10T20:26:39;20.67;85.50
67572;SHT31;54397;47.506;19.158;2023-06-10T20:30:04;20.70;85.37
67572;SHT31;54397;47.506;19.158;2023-06-10T20:33:25;20.79;85.14
67572;SHT31;54397;47.506;19.158;2023-06-10T20:36:47;20.79;85.32
67572;SHT31;54397;47.506;19.158;2023-06-10T20:40:09;20.78;84.86
67572;SHT31;54397;47.506;19.158;2023-06-10T20:43:32;20.61;84.08
67572;SHT31;54397;47.506;19.158;2023-06-10T20:46:56;20.63;84.49
67572;SHT31;54397;47.506;19.158;2023-06-10T20:50:17;20.67;84.13
67572;SHT31;54397;47.506;19.158;2023-06-10T20:53:39;20.63;84.11
67572;SHT31;54397;47.506;19.158;2023-06-10T20:57:01;20.60;83.78
67572;SHT31;54397;47.506;19.158;2023-06-10T21:00:25;20.65;84.21
67572;SHT31;54397;47.506;19.158;2023-06-10T21:03:49;20.67;84.21
67572;SHT31;54397;47.506;19.158;2023-06-10T21:07:11;20.68;84.46
67572;SHT31;54397;47.506;19.158;2023-06-10T21:10:33;20.71;84.66
67572;SHT31;54397;47.506;19.158;2023-06-10T21:13:55;20.72;84.54
67572;SHT31;54397;47.506;19.158;2023-06-10T21:17:17;20.75;84.73
67572;SHT31;54397;47.506;19.158;2023-06-10T21:20:41;20.71;84.68
67572;SHT31;54397;47.506;19.158;2023-06-10T21:24:03;20.71;84.94
67572;SHT31;54397;47.506;19.158;2023-06-10T21:27:27;20.70;85.09